This is the latest recevied weather packets stored in our database for station/object SV9FBP-13. If no packets are shown the sender has not sent any weather packets the latest 10 day(s).
| Time | Temp. | Humidity | Pressure | Rain* | Wind** | Luminosity | Snow |
|---|---|---|---|---|---|---|---|
| 1788338316 | 34.44° C | 26% | 1010.4 hPa | 0 mm | - | - | - |
| 1788337414 | 33.89° C | 28% | 1010.4 hPa | 0 mm | - | - | - |
| 1788336512 | 33.33° C | 30% | 1010.3 hPa | 0 mm | - | - | - |
| 1788335609 | 32.78° C | 32% | 1010.3 hPa | 0 mm | - | - | - |
| 1788334707 | 32.22° C | 37% | 1010.1 hPa | 0 mm | - | - | - |
| 1788333805 | 31.67° C | 40% | 1010.2 hPa | 0 mm | - | - | - |
| 1788332903 | 31.11° C | 41% | 1010.1 hPa | 0 mm | - | - | - |
| 1788332000 | 31.11° C | 41% | 1009.9 hPa | 0 mm | - | - | - |
| 1788331099 | 30.56° C | 42% | 1009.9 hPa | 0 mm | - | - | - |
| 1788330197 | 30.56° C | 43% | 1009.7 hPa | 0 mm | - | - | - |
| 1788329294 | 30° C | 44% | 1009.9 hPa | 0 mm | - | - | - |
| 1788328392 | 29.44° C | 44% | 1009.8 hPa | 0 mm | - | - | - |
| 1788327491 | 28.89° C | 45% | 1009.9 hPa | 0 mm | - | - | - |
| 1788326588 | 28.33° C | 46% | 1009.9 hPa | 0 mm | - | - | - |
| 1788325685 | 27.78° C | 48% | 1009.7 hPa | 0 mm | - | - | - |
| 1788324783 | 27.22° C | 52% | 1009.8 hPa | 0 mm | - | - | - |
| 1788323882 | 27.22° C | 52% | 1009.6 hPa | 0 mm | - | - | - |
| 1788322980 | 27.22° C | 52% | 1009.3 hPa | 0 mm | - | - | - |
| 1788322077 | 26.11° C | 54% | 1009.5 hPa | 0 mm | - | - | - |
| 1788321174 | 26.11° C | 55% | 1009.2 hPa | 0 mm | - | - | - |
| 1788320273 | 25.56° C | 58% | 1009.1 hPa | 0 mm | - | - | - |
| 1788319371 | 25.56° C | 60% | 1009.1 hPa | 0 mm | - | - | - |
| 1788318468 | 25.56° C | 60% | 1009 hPa | 0 mm | - | - | - |
| 1788317567 | 25.56° C | 59% | 1009 hPa | 0 mm | - | - | - |
| 1788316664 | 25.56° C | 59% | 1009.2 hPa | 0 mm | - | - | - |
* Rain latest hour (hover to see other rain measurements)
** Current wind speed in m/s (hover to see current wind gust speed)